sensor_id;sensor_type;location;lat;lon;timestamp;P1;durP1;ratioP1;P2;durP2;ratioP2
34890;SDS011;21103;51.358;12.412;2022-07-23T00:00:44;4.65;;;3.35;;
34890;SDS011;21103;51.358;12.412;2022-07-23T00:03:11;3.75;;;3.40;;
34890;SDS011;21103;51.358;12.412;2022-07-23T00:05:37;7.28;;;4.95;;
34890;SDS011;21103;51.358;12.412;2022-07-23T00:08:02;8.05;;;4.00;;
34890;SDS011;21103;51.358;12.412;2022-07-23T00:10:28;4.03;;;3.63;;
34890;SDS011;21103;51.358;12.412;2022-07-23T00:12:53;4.72;;;3.60;;
34890;SDS011;21103;51.358;12.412;2022-07-23T00:15:19;7.38;;;3.78;;
34890;SDS011;21103;51.358;12.412;2022-07-23T00:17:45;4.63;;;3.97;;
34890;SDS011;21103;51.358;12.412;2022-07-23T00:20:11;5.55;;;4.15;;
34890;SDS011;21103;51.358;12.412;2022-07-23T00:22:36;10.93;;;3.78;;
34890;SDS011;21103;51.358;12.412;2022-07-23T00:25:10;4.38;;;3.63;;
34890;SDS011;21103;51.358;12.412;2022-07-23T00:27:35;5.85;;;4.00;;
34890;SDS011;21103;51.358;12.412;2022-07-23T00:30:00;5.13;;;3.50;;
34890;SDS011;21103;51.358;12.412;2022-07-23T00:32:26;4.68;;;3.83;;
34890;SDS011;21103;51.358;12.412;2022-07-23T00:34:52;4.07;;;3.63;;
34890;SDS011;21103;51.358;12.412;2022-07-23T00:37:17;4.72;;;3.95;;
34890;SDS011;21103;51.358;12.412;2022-07-23T00:39:43;5.60;;;3.45;;
34890;SDS011;21103;51.358;12.412;2022-07-23T00:42:08;4.82;;;3.35;;
34890;SDS011;21103;51.358;12.412;2022-07-23T00:44:33;7.43;;;3.75;;
34890;SDS011;21103;51.358;12.412;2022-07-23T00:46:59;6.07;;;3.97;;
34890;SDS011;21103;51.358;12.412;2022-07-23T00:49:26;6.15;;;4.10;;
34890;SDS011;21103;51.358;12.412;2022-07-23T00:51:54;7.78;;;4.47;;
34890;SDS011;21103;51.358;12.412;2022-07-23T00:54:21;5.00;;;3.95;;
34890;SDS011;21103;51.358;12.412;2022-07-23T00:56:48;4.88;;;4.05;;
34890;SDS011;21103;51.358;12.412;2022-07-23T00:59:14;4.47;;;3.92;;
34890;SDS011;21103;51.358;12.412;2022-07-23T01:01:40;5.50;;;4.15;;
34890;SDS011;21103;51.358;12.412;2022-07-23T01:04:06;4.82;;;3.83;;
34890;SDS011;21103;51.358;12.412;2022-07-23T01:06:34;4.05;;;3.65;;
34890;SDS011;21103;51.358;12.412;2022-07-23T01:09:01;5.53;;;4.30;;
34890;SDS011;21103;51.358;12.412;2022-07-23T01:11:27;5.05;;;4.00;;
34890;SDS011;21103;51.358;12.412;2022-07-23T01:13:52;6.68;;;3.95;;
34890;SDS011;21103;51.358;12.412;2022-07-23T01:16:18;4.25;;;3.83;;
34890;SDS011;21103;51.358;12.412;2022-07-23T01:18:44;4.22;;;3.72;;
34890;SDS011;21103;51.358;12.412;2022-07-23T01:21:10;5.68;;;4.50;;
34890;SDS011;21103;51.358;12.412;2022-07-23T01:23:40;7.72;;;4.28;;
34890;SDS011;21103;51.358;12.412;2022-07-23T01:26:06;6.22;;;4.65;;
34890;SDS011;21103;51.358;12.412;2022-07-23T01:28:31;4.70;;;4.00;;
34890;SDS011;21103;51.358;12.412;2022-07-23T01:30:57;5.22;;;4.50;;
34890;SDS011;21103;51.358;12.412;2022-07-23T01:33:23;4.97;;;3.83;;
34890;SDS011;21103;51.358;12.412;2022-07-23T01:35:48;5.50;;;4.03;;
34890;SDS011;21103;51.358;12.412;2022-07-23T01:38:14;6.05;;;4.55;;
34890;SDS011;21103;51.358;12.412;2022-07-23T01:40:39;3.50;;;3.17;;
34890;SDS011;21103;51.358;12.412;2022-07-23T01:43:05;6.68;;;4.60;;
34890;SDS011;21103;51.358;12.412;2022-07-23T01:45:30;5.00;;;3.75;;
34890;SDS011;21103;51.358;12.412;2022-07-23T01:47:56;5.43;;;3.85;;
34890;SDS011;21103;51.358;12.412;2022-07-23T01:50:22;4.65;;;4.22;;
34890;SDS011;21103;51.358;12.412;2022-07-23T01:52:47;4.97;;;4.10;;
34890;SDS011;21103;51.358;12.412;2022-07-23T01:55:13;5.18;;;3.95;;
34890;SDS011;21103;51.358;12.412;2022-07-23T01:57:38;5.75;;;4.45;;
34890;SDS011;21103;51.358;12.412;2022-07-23T02:00:04;6.43;;;4.53;;
34890;SDS011;21103;51.358;12.412;2022-07-23T02:02:30;8.02;;;4.47;;
34890;SDS011;21103;51.358;12.412;2022-07-23T02:04:55;4.20;;;3.80;;
34890;SDS011;21103;51.358;12.412;2022-07-23T02:07:21;5.80;;;4.38;;
34890;SDS011;21103;51.358;12.412;2022-07-23T02:09:46;4.60;;;3.70;;
34890;SDS011;21103;51.358;12.412;2022-07-23T02:12:12;5.18;;;4.30;;
34890;SDS011;21103;51.358;12.412;2022-07-23T02:14:37;6.95;;;4.72;;
34890;SDS011;21103;51.358;12.412;2022-07-23T02:17:03;5.22;;;4.18;;
34890;SDS011;21103;51.358;12.412;2022-07-23T02:19:28;5.18;;;4.22;;
34890;SDS011;21103;51.358;12.412;2022-07-23T02:21:54;5.00;;;4.18;;
34890;SDS011;21103;51.358;12.412;2022-07-23T02:24:19;7.03;;;3.92;;
34890;SDS011;21103;51.358;12.412;2022-07-23T02:26:45;6.38;;;4.30;;
34890;SDS011;21103;51.358;12.412;2022-07-23T02:29:11;4.90;;;3.40;;
34890;SDS011;21103;51.358;12.412;2022-07-23T02:31:37;4.75;;;4.03;;
34890;SDS011;21103;51.358;12.412;2022-07-23T02:34:02;4.45;;;3.80;;
34890;SDS011;21103;51.358;12.412;2022-07-23T02:36:28;5.15;;;4.32;;
34890;SDS011;21103;51.358;12.412;2022-07-23T02:38:54;7.63;;;4.20;;
34890;SDS011;21103;51.358;12.412;2022-07-23T02:41:19;7.05;;;4.15;;
34890;SDS011;21103;51.358;12.412;2022-07-23T02:43:44;5.68;;;5.07;;
34890;SDS011;21103;51.358;12.412;2022-07-23T02:46:10;6.53;;;4.30;;
34890;SDS011;21103;51.358;12.412;2022-07-23T02:48:35;5.25;;;3.70;;
34890;SDS011;21103;51.358;12.412;2022-07-23T02:51:01;4.35;;;3.75;;
34890;SDS011;21103;51.358;12.412;2022-07-23T02:53:26;5.30;;;4.28;;
34890;SDS011;21103;51.358;12.412;2022-07-23T02:55:52;5.30;;;4.75;;
34890;SDS011;21103;51.358;12.412;2022-07-23T02:58:17;6.13;;;4.88;;
34890;SDS011;21103;51.358;12.412;2022-07-23T03:00:43;4.80;;;4.30;;
34890;SDS011;21103;51.358;12.412;2022-07-23T03:03:09;5.07;;;4.57;;
34890;SDS011;21103;51.358;12.412;2022-07-23T03:05:34;8.50;;;4.72;;
34890;SDS011;21103;51.358;12.412;2022-07-23T03:08:00;4.85;;;3.75;;
34890;SDS011;21103;51.358;12.412;2022-07-23T03:10:26;8.57;;;4.55;;
34890;SDS011;21103;51.358;12.412;2022-07-23T03:12:52;5.28;;;4.43;;
34890;SDS011;21103;51.358;12.412;2022-07-23T03:15:17;5.28;;;4.50;;
34890;SDS011;21103;51.358;12.412;2022-07-23T03:17:43;9.60;;;4.63;;
34890;SDS011;21103;51.358;12.412;2022-07-23T03:20:08;5.25;;;4.50;;
34890;SDS011;21103;51.358;12.412;2022-07-23T03:22:34;5.72;;;4.30;;
34890;SDS011;21103;51.358;12.412;2022-07-23T03:25:00;5.85;;;4.30;;
34890;SDS011;21103;51.358;12.412;2022-07-23T03:27:26;5.60;;;4.18;;
34890;SDS011;21103;51.358;12.412;2022-07-23T03:29:54;5.20;;;3.90;;
34890;SDS011;21103;51.358;12.412;2022-07-23T03:32:20;7.22;;;4.18;;
34890;SDS011;21103;51.358;12.412;2022-07-23T03:34:47;7.78;;;4.78;;
34890;SDS011;21103;51.358;12.412;2022-07-23T03:37:12;7.38;;;4.95;;
34890;SDS011;21103;51.358;12.412;2022-07-23T03:39:38;6.47;;;4.40;;
34890;SDS011;21103;51.358;12.412;2022-07-23T03:42:04;6.65;;;3.90;;
34890;SDS011;21103;51.358;12.412;2022-07-23T03:44:30;6.20;;;4.57;;
34890;SDS011;21103;51.358;12.412;2022-07-23T03:46:56;4.88;;;4.03;;
34890;SDS011;21103;51.358;12.412;2022-07-23T03:49:21;8.65;;;4.93;;
34890;SDS011;21103;51.358;12.412;2022-07-23T03:51:47;4.72;;;4.30;;
34890;SDS011;21103;51.358;12.412;2022-07-23T03:54:12;6.38;;;4.43;;
34890;SDS011;21103;51.358;12.412;2022-07-23T03:56:38;5.93;;;4.22;;
34890;SDS011;21103;51.358;12.412;2022-07-23T03:59:04;5.00;;;4.35;;
34890;SDS011;21103;51.358;12.412;2022-07-23T04:01:29;5.20;;;4.22;;
34890;SDS011;21103;51.358;12.412;2022-07-23T04:03:55;7.63;;;4.82;;
34890;SDS011;21103;51.358;12.412;2022-07-23T04:06:20;6.13;;;4.57;;
34890;SDS011;21103;51.358;12.412;2022-07-23T04:08:46;7.63;;;4.70;;
34890;SDS011;21103;51.358;12.412;2022-07-23T04:11:11;7.63;;;4.82;;
34890;SDS011;21103;51.358;12.412;2022-07-23T04:13:37;6.78;;;4.57;;
34890;SDS011;21103;51.358;12.412;2022-07-23T04:16:02;7.10;;;4.75;;
34890;SDS011;21103;51.358;12.412;2022-07-23T04:18:28;5.93;;;4.50;;
34890;SDS011;21103;51.358;12.412;2022-07-23T04:20:54;6.05;;;4.18;;
34890;SDS011;21103;51.358;12.412;2022-07-23T04:23:20;5.40;;;4.45;;
34890;SDS011;21103;51.358;12.412;2022-07-23T04:25:46;5.93;;;4.22;;
34890;SDS011;21103;51.358;12.412;2022-07-23T04:28:11;6.95;;;3.88;;
34890;SDS011;21103;51.358;12.412;2022-07-23T04:30:37;8.65;;;4.60;;
34890;SDS011;21103;51.358;12.412;2022-07-23T04:33:02;5.90;;;4.20;;
34890;SDS011;21103;51.358;12.412;2022-07-23T04:35:31;6.13;;;4.03;;
34890;SDS011;21103;51.358;12.412;2022-07-23T04:37:57;6.85;;;4.35;;
34890;SDS011;21103;51.358;12.412;2022-07-23T04:40:24;8.75;;;4.22;;
34890;SDS011;21103;51.358;12.412;2022-07-23T04:42:50;5.57;;;4.15;;
34890;SDS011;21103;51.358;12.412;2022-07-23T04:45:15;6.53;;;4.22;;
34890;SDS011;21103;51.358;12.412;2022-07-23T04:47:41;7.28;;;3.97;;
34890;SDS011;21103;51.358;12.412;2022-07-23T04:50:06;14.27;;;5.75;;
34890;SDS011;21103;51.358;12.412;2022-07-23T04:52:32;10.93;;;4.80;;
34890;SDS011;21103;51.358;12.412;2022-07-23T04:54:57;10.60;;;5.47;;
34890;SDS011;21103;51.358;12.412;2022-07-23T04:57:23;6.53;;;4.93;;
34890;SDS011;21103;51.358;12.412;2022-07-23T04:59:48;6.15;;;4.88;;
34890;SDS011;21103;51.358;12.412;2022-07-23T05:02:14;11.82;;;5.38;;
34890;SDS011;21103;51.358;12.412;2022-07-23T05:04:39;9.27;;;5.53;;
34890;SDS011;21103;51.358;12.412;2022-07-23T05:07:05;9.07;;;6.15;;
34890;SDS011;21103;51.358;12.412;2022-07-23T05:09:30;8.43;;;5.70;;
34890;SDS011;21103;51.358;12.412;2022-07-23T05:11:57;8.77;;;5.78;;
34890;SDS011;21103;51.358;12.412;2022-07-23T05:14:22;8.63;;;6.03;;
34890;SDS011;21103;51.358;12.412;2022-07-23T05:16:48;8.50;;;5.85;;
34890;SDS011;21103;51.358;12.412;2022-07-23T05:19:13;7.38;;;5.50;;
34890;SDS011;21103;51.358;12.412;2022-07-23T05:21:39;8.65;;;5.88;;
34890;SDS011;21103;51.358;12.412;2022-07-23T05:24:04;9.38;;;5.80;;
34890;SDS011;21103;51.358;12.412;2022-07-23T05:26:30;16.20;;;6.63;;
34890;SDS011;21103;51.358;12.412;2022-07-23T05:28:56;9.80;;;6.28;;
34890;SDS011;21103;51.358;12.412;2022-07-23T05:31:21;10.23;;;6.68;;
34890;SDS011;21103;51.358;12.412;2022-07-23T05:33:47;10.18;;;6.70;;
34890;SDS011;21103;51.358;12.412;2022-07-23T05:36:12;15.27;;;7.80;;
34890;SDS011;21103;51.358;12.412;2022-07-23T05:38:38;10.55;;;6.50;;
34890;SDS011;21103;51.358;12.412;2022-07-23T05:41:03;11.18;;;6.45;;
34890;SDS011;21103;51.358;12.412;2022-07-23T05:43:29;10.95;;;6.18;;
34890;SDS011;21103;51.358;12.412;2022-07-23T05:45:54;10.25;;;6.57;;
34890;SDS011;21103;51.358;12.412;2022-07-23T05:48:20;10.85;;;6.28;;
34890;SDS011;21103;51.358;12.412;2022-07-23T05:50:46;11.65;;;6.13;;
34890;SDS011;21103;51.358;12.412;2022-07-23T05:53:12;12.73;;;6.90;;
34890;SDS011;21103;51.358;12.412;2022-07-23T05:55:38;9.82;;;6.60;;
34890;SDS011;21103;51.358;12.412;2022-07-23T05:58:03;9.00;;;5.53;;
34890;SDS011;21103;51.358;12.412;2022-07-23T06:00:29;9.15;;;5.97;;
34890;SDS011;21103;51.358;12.412;2022-07-23T06:02:55;11.38;;;6.53;;
34890;SDS011;21103;51.358;12.412;2022-07-23T06:05:20;10.63;;;6.13;;
34890;SDS011;21103;51.358;12.412;2022-07-23T06:07:46;9.40;;;5.97;;
34890;SDS011;21103;51.358;12.412;2022-07-23T06:10:12;11.23;;;5.57;;
34890;SDS011;21103;51.358;12.412;2022-07-23T06:12:37;8.90;;;5.60;;
34890;SDS011;21103;51.358;12.412;2022-07-23T06:15:03;9.75;;;5.55;;
34890;SDS011;21103;51.358;12.412;2022-07-23T06:17:29;9.00;;;5.22;;
34890;SDS011;21103;51.358;12.412;2022-07-23T06:19:55;7.03;;;4.68;;
34890;SDS011;21103;51.358;12.412;2022-07-23T06:22:20;7.32;;;5.32;;
34890;SDS011;21103;51.358;12.412;2022-07-23T06:24:46;7.22;;;4.93;;
34890;SDS011;21103;51.358;12.412;2022-07-23T06:27:12;9.48;;;5.28;;
34890;SDS011;21103;51.358;12.412;2022-07-23T06:29:37;7.00;;;5.03;;
34890;SDS011;21103;51.358;12.412;2022-07-23T06:32:05;10.20;;;4.78;;
34890;SDS011;21103;51.358;12.412;2022-07-23T06:34:31;5.07;;;4.22;;
34890;SDS011;21103;51.358;12.412;2022-07-23T06:36:56;6.75;;;4.25;;
34890;SDS011;21103;51.358;12.412;2022-07-23T06:39:22;7.95;;;4.30;;
34890;SDS011;21103;51.358;12.412;2022-07-23T06:41:47;6.63;;;4.05;;
34890;SDS011;21103;51.358;12.412;2022-07-23T06:44:13;7.55;;;3.97;;
34890;SDS011;21103;51.358;12.412;2022-07-23T06:46:38;6.80;;;4.22;;
34890;SDS011;21103;51.358;12.412;2022-07-23T06:49:04;7.88;;;4.70;;
34890;SDS011;21103;51.358;12.412;2022-07-23T06:51:30;9.98;;;5.32;;
34890;SDS011;21103;51.358;12.412;2022-07-23T06:53:55;8.85;;;4.78;;
34890;SDS011;21103;51.358;12.412;2022-07-23T06:56:21;10.98;;;4.13;;
34890;SDS011;21103;51.358;12.412;2022-07-23T06:58:46;6.47;;;4.10;;
34890;SDS011;21103;51.358;12.412;2022-07-23T07:01:12;6.20;;;4.32;;
34890;SDS011;21103;51.358;12.412;2022-07-23T07:03:37;5.75;;;4.30;;
34890;SDS011;21103;51.358;12.412;2022-07-23T07:06:03;5.63;;;3.97;;
34890;SDS011;21103;51.358;12.412;2022-07-23T07:08:29;7.15;;;4.47;;
34890;SDS011;21103;51.358;12.412;2022-07-23T07:10:54;6.03;;;4.15;;
34890;SDS011;21103;51.358;12.412;2022-07-23T07:13:19;6.15;;;4.47;;
34890;SDS011;21103;51.358;12.412;2022-07-23T07:15:45;6.78;;;3.97;;
34890;SDS011;21103;51.358;12.412;2022-07-23T07:18:10;6.78;;;4.60;;
34890;SDS011;21103;51.358;12.412;2022-07-23T07:20:36;5.45;;;3.75;;
34890;SDS011;21103;51.358;12.412;2022-07-23T07:23:01;4.63;;;3.83;;
34890;SDS011;21103;51.358;12.412;2022-07-23T07:25:27;9.75;;;4.68;;
34890;SDS011;21103;51.358;12.412;2022-07-23T07:27:53;7.25;;;4.45;;
34890;SDS011;21103;51.358;12.412;2022-07-23T07:30:18;7.20;;;4.32;;
34890;SDS011;21103;51.358;12.412;2022-07-23T07:32:44;6.50;;;4.30;;
34890;SDS011;21103;51.358;12.412;2022-07-23T07:35:09;9.27;;;4.72;;
34890;SDS011;21103;51.358;12.412;2022-07-23T07:37:35;9.00;;;5.13;;
34890;SDS011;21103;51.358;12.412;2022-07-23T07:40:00;8.55;;;5.32;;
34890;SDS011;21103;51.358;12.412;2022-07-23T07:42:26;8.05;;;5.07;;
34890;SDS011;21103;51.358;12.412;2022-07-23T07:44:52;9.63;;;4.38;;
34890;SDS011;21103;51.358;12.412;2022-07-23T07:47:17;9.50;;;5.03;;
34890;SDS011;21103;51.358;12.412;2022-07-23T07:49:43;7.35;;;5.50;;
34890;SDS011;21103;51.358;12.412;2022-07-23T07:52:09;6.85;;;5.85;;
34890;SDS011;21103;51.358;12.412;2022-07-23T07:54:35;9.18;;;6.22;;
34890;SDS011;21103;51.358;12.412;2022-07-23T07:57:00;6.80;;;5.35;;
34890;SDS011;21103;51.358;12.412;2022-07-23T07:59:26;9.18;;;6.35;;
34890;SDS011;21103;51.358;12.412;2022-07-23T08:01:51;7.00;;;6.03;;
34890;SDS011;21103;51.358;12.412;2022-07-23T08:04:17;9.35;;;5.70;;
34890;SDS011;21103;51.358;12.412;2022-07-23T08:06:43;12.20;;;5.43;;
34890;SDS011;21103;51.358;12.412;2022-07-23T08:09:09;9.68;;;5.60;;
34890;SDS011;21103;51.358;12.412;2022-07-23T08:11:34;10.18;;;5.85;;
34890;SDS011;21103;51.358;12.412;2022-07-23T08:14:00;7.57;;;5.10;;
34890;SDS011;21103;51.358;12.412;2022-07-23T08:16:25;7.82;;;5.85;;
34890;SDS011;21103;51.358;12.412;2022-07-23T08:18:51;8.07;;;5.90;;
34890;SDS011;21103;51.358;12.412;2022-07-23T08:21:16;8.27;;;5.97;;
34890;SDS011;21103;51.358;12.412;2022-07-23T08:23:42;9.30;;;6.47;;
34890;SDS011;21103;51.358;12.412;2022-07-23T08:26:07;9.52;;;5.90;;
34890;SDS011;21103;51.358;12.412;2022-07-23T08:28:33;8.82;;;4.90;;
34890;SDS011;21103;51.358;12.412;2022-07-23T08:30:59;6.65;;;5.85;;
34890;SDS011;21103;51.358;12.412;2022-07-23T08:33:25;8.70;;;5.47;;
34890;SDS011;21103;51.358;12.412;2022-07-23T08:35:50;9.85;;;5.65;;
34890;SDS011;21103;51.358;12.412;2022-07-23T08:38:18;6.45;;;4.80;;
34890;SDS011;21103;51.358;12.412;2022-07-23T08:40:46;6.80;;;5.00;;
34890;SDS011;21103;51.358;12.412;2022-07-23T08:43:14;6.05;;;5.40;;
34890;SDS011;21103;51.358;12.412;2022-07-23T08:45:52;7.78;;;6.05;;
34890;SDS011;21103;51.358;12.412;2022-07-23T08:48:22;11.98;;;6.68;;
34890;SDS011;21103;51.358;12.412;2022-07-23T08:50:50;8.43;;;7.43;;
34890;SDS011;21103;51.358;12.412;2022-07-23T08:53:19;8.38;;;6.78;;
34890;SDS011;21103;51.358;12.412;2022-07-23T08:55:46;8.60;;;6.65;;
34890;SDS011;21103;51.358;12.412;2022-07-23T08:58:13;11.07;;;7.13;;
34890;SDS011;21103;51.358;12.412;2022-07-23T09:00:39;10.13;;;7.15;;
34890;SDS011;21103;51.358;12.412;2022-07-23T09:03:05;11.18;;;8.23;;
34890;SDS011;21103;51.358;12.412;2022-07-23T09:05:30;10.05;;;7.70;;
34890;SDS011;21103;51.358;12.412;2022-07-23T09:08:09;11.45;;;7.53;;
34890;SDS011;21103;51.358;12.412;2022-07-23T09:10:43;10.55;;;8.70;;
34890;SDS011;21103;51.358;12.412;2022-07-23T09:15:49;10.80;;;7.63;;
34890;SDS011;21103;51.358;12.412;2022-07-23T09:18:16;11.40;;;8.25;;
34890;SDS011;21103;51.358;12.412;2022-07-23T09:20:43;10.15;;;7.15;;
34890;SDS011;21103;51.358;12.412;2022-07-23T09:23:08;10.23;;;6.45;;
34890;SDS011;21103;51.358;12.412;2022-07-23T09:25:34;9.70;;;7.47;;
34890;SDS011;21103;51.358;12.412;2022-07-23T09:28:00;10.93;;;6.80;;
34890;SDS011;21103;51.358;12.412;2022-07-23T09:30:30;9.88;;;8.40;;
34890;SDS011;21103;51.358;12.412;2022-07-23T09:33:06;10.63;;;7.90;;
34890;SDS011;21103;51.358;12.412;2022-07-23T09:35:46;13.30;;;8.32;;
34890;SDS011;21103;51.358;12.412;2022-07-23T09:38:16;10.45;;;8.25;;
34890;SDS011;21103;51.358;12.412;2022-07-23T09:40:44;9.18;;;7.85;;
34890;SDS011;21103;51.358;12.412;2022-07-23T09:43:10;11.23;;;8.30;;
34890;SDS011;21103;51.358;12.412;2022-07-23T09:45:37;9.13;;;7.88;;
34890;SDS011;21103;51.358;12.412;2022-07-23T09:48:14;9.10;;;7.45;;
34890;SDS011;21103;51.358;12.412;2022-07-23T09:50:42;10.50;;;7.40;;
34890;SDS011;21103;51.358;12.412;2022-07-23T09:53:09;10.95;;;7.72;;
34890;SDS011;21103;51.358;12.412;2022-07-23T09:55:35;11.15;;;7.47;;
34890;SDS011;21103;51.358;12.412;2022-07-23T09:58:03;9.27;;;6.90;;
34890;SDS011;21103;51.358;12.412;2022-07-23T10:00:30;9.27;;;6.88;;
34890;SDS011;21103;51.358;12.412;2022-07-23T10:02:57;7.07;;;6.18;;
34890;SDS011;21103;51.358;12.412;2022-07-23T10:05:24;8.98;;;6.68;;
34890;SDS011;21103;51.358;12.412;2022-07-23T10:07:50;10.25;;;7.60;;
34890;SDS011;21103;51.358;12.412;2022-07-23T10:10:16;7.55;;;6.10;;
34890;SDS011;21103;51.358;12.412;2022-07-23T10:12:46;9.00;;;6.90;;
34890;SDS011;21103;51.358;12.412;2022-07-23T10:15:32;8.52;;;6.65;;
34890;SDS011;21103;51.358;12.412;2022-07-23T10:17:57;8.68;;;6.57;;
34890;SDS011;21103;51.358;12.412;2022-07-23T10:20:23;9.23;;;6.55;;
34890;SDS011;21103;51.358;12.412;2022-07-23T10:23:05;8.98;;;6.40;;
34890;SDS011;21103;51.358;12.412;2022-07-23T10:31:35;7.75;;;5.70;;
34890;SDS011;21103;51.358;12.412;2022-07-23T10:37:11;9.02;;;6.55;;
34890;SDS011;21103;51.358;12.412;2022-07-23T10:40:07;8.60;;;5.93;;
34890;SDS011;21103;51.358;12.412;2022-07-23T10:42:34;8.27;;;5.70;;
34890;SDS011;21103;51.358;12.412;2022-07-23T10:45:01;10.40;;;6.70;;
34890;SDS011;21103;51.358;12.412;2022-07-23T10:47:46;9.57;;;6.45;;
34890;SDS011;21103;51.358;12.412;2022-07-23T10:50:19;7.10;;;5.35;;
34890;SDS011;21103;51.358;12.412;2022-07-23T10:57:57;10.20;;;5.47;;
34890;SDS011;21103;51.358;12.412;2022-07-23T11:00:23;10.70;;;5.65;;
34890;SDS011;21103;51.358;12.412;2022-07-23T11:02:51;9.27;;;6.63;;
34890;SDS011;21103;51.358;12.412;2022-07-23T11:05:22;9.27;;;6.97;;
34890;SDS011;21103;51.358;12.412;2022-07-23T11:10:46;10.77;;;8.40;;
34890;SDS011;21103;51.358;12.412;2022-07-23T11:16:07;9.75;;;7.75;;
34890;SDS011;21103;51.358;12.412;2022-07-23T11:34:42;10.55;;;9.00;;
34890;SDS011;21103;51.358;12.412;2022-07-23T11:37:11;9.65;;;8.23;;
34890;SDS011;21103;51.358;12.412;2022-07-23T11:39:53;12.13;;;8.50;;
34890;SDS011;21103;51.358;12.412;2022-07-23T11:42:20;12.43;;;9.15;;
34890;SDS011;21103;51.358;12.412;2022-07-23T11:44:46;9.55;;;7.38;;
34890;SDS011;21103;51.358;12.412;2022-07-23T11:47:12;10.65;;;8.65;;
34890;SDS011;21103;51.358;12.412;2022-07-23T11:49:38;9.65;;;7.50;;
34890;SDS011;21103;51.358;12.412;2022-07-23T11:52:14;10.73;;;8.20;;
34890;SDS011;21103;51.358;12.412;2022-07-23T11:54:53;10.23;;;7.78;;
34890;SDS011;21103;51.358;12.412;2022-07-23T11:57:23;8.85;;;7.95;;
34890;SDS011;21103;51.358;12.412;2022-07-23T12:00:16;9.23;;;7.68;;
34890;SDS011;21103;51.358;12.412;2022-07-23T12:02:44;8.70;;;7.28;;
34890;SDS011;21103;51.358;12.412;2022-07-23T12:05:13;10.25;;;6.88;;
34890;SDS011;21103;51.358;12.412;2022-07-23T12:07:41;8.18;;;6.25;;
34890;SDS011;21103;51.358;12.412;2022-07-23T12:10:10;7.10;;;6.18;;
34890;SDS011;21103;51.358;12.412;2022-07-23T12:13:02;8.00;;;6.45;;
34890;SDS011;21103;51.358;12.412;2022-07-23T12:15:30;15.27;;;8.50;;
34890;SDS011;21103;51.358;12.412;2022-07-23T12:18:03;10.77;;;8.25;;
34890;SDS011;21103;51.358;12.412;2022-07-23T12:20:31;9.23;;;7.32;;
34890;SDS011;21103;51.358;12.412;2022-07-23T12:23:00;9.07;;;8.05;;
34890;SDS011;21103;51.358;12.412;2022-07-23T12:25:28;11.60;;;8.15;;
34890;SDS011;21103;51.358;12.412;2022-07-23T12:28:14;12.52;;;8.80;;
34890;SDS011;21103;51.358;12.412;2022-07-23T12:30:51;8.85;;;7.93;;
34890;SDS011;21103;51.358;12.412;2022-07-23T12:33:22;10.13;;;7.95;;
34890;SDS011;21103;51.358;12.412;2022-07-23T12:35:48;9.05;;;7.90;;
34890;SDS011;21103;51.358;12.412;2022-07-23T12:38:15;10.77;;;8.32;;
34890;SDS011;21103;51.358;12.412;2022-07-23T12:40:46;8.02;;;7.05;;
34890;SDS011;21103;51.358;12.412;2022-07-23T12:43:26;10.18;;;7.57;;
34890;SDS011;21103;51.358;12.412;2022-07-23T12:50:52;8.80;;;7.30;;
34890;SDS011;21103;51.358;12.412;2022-07-23T12:53:21;7.10;;;6.40;;
34890;SDS011;21103;51.358;12.412;2022-07-23T12:55:59;8.88;;;7.65;;
34890;SDS011;21103;51.358;12.412;2022-07-23T12:58:26;8.82;;;6.93;;
34890;SDS011;21103;51.358;12.412;2022-07-23T13:01:04;8.35;;;6.95;;
34890;SDS011;21103;51.358;12.412;2022-07-23T13:03:40;8.32;;;6.57;;
34890;SDS011;21103;51.358;12.412;2022-07-23T13:06:07;11.93;;;7.70;;
34890;SDS011;21103;51.358;12.412;2022-07-23T13:08:35;10.30;;;7.28;;
34890;SDS011;21103;51.358;12.412;2022-07-23T13:11:02;8.80;;;7.93;;
34890;SDS011;21103;51.358;12.412;2022-07-23T13:13:30;8.52;;;7.05;;
34890;SDS011;21103;51.358;12.412;2022-07-23T13:15:57;7.28;;;6.57;;
34890;SDS011;21103;51.358;12.412;2022-07-23T13:18:24;7.55;;;6.43;;
34890;SDS011;21103;51.358;12.412;2022-07-23T13:20:51;6.45;;;5.85;;
34890;SDS011;21103;51.358;12.412;2022-07-23T13:23:17;7.00;;;6.28;;
34890;SDS011;21103;51.358;12.412;2022-07-23T13:25:43;8.02;;;5.78;;
34890;SDS011;21103;51.358;12.412;2022-07-23T13:28:09;10.75;;;6.47;;
34890;SDS011;21103;51.358;12.412;2022-07-23T13:30:35;7.53;;;6.63;;
34890;SDS011;21103;51.358;12.412;2022-07-23T13:33:01;6.63;;;5.85;;
34890;SDS011;21103;51.358;12.412;2022-07-23T13:35:28;10.05;;;6.50;;
34890;SDS011;21103;51.358;12.412;2022-07-23T13:37:54;8.10;;;6.35;;
34890;SDS011;21103;51.358;12.412;2022-07-23T13:40:19;6.82;;;5.03;;
34890;SDS011;21103;51.358;12.412;2022-07-23T13:42:45;6.68;;;5.57;;
34890;SDS011;21103;51.358;12.412;2022-07-23T13:45:11;9.00;;;7.13;;
34890;SDS011;21103;51.358;12.412;2022-07-23T13:47:36;6.90;;;6.20;;
34890;SDS011;21103;51.358;12.412;2022-07-23T13:50:02;7.60;;;5.13;;
34890;SDS011;21103;51.358;12.412;2022-07-23T13:52:28;7.00;;;5.90;;
34890;SDS011;21103;51.358;12.412;2022-07-23T13:54:54;8.50;;;6.22;;
34890;SDS011;21103;51.358;12.412;2022-07-23T13:57:19;6.40;;;5.80;;
34890;SDS011;21103;51.358;12.412;2022-07-23T13:59:45;8.75;;;6.05;;
34890;SDS011;21103;51.358;12.412;2022-07-23T14:02:10;10.85;;;6.60;;
34890;SDS011;21103;51.358;12.412;2022-07-23T14:04:40;7.05;;;5.68;;
34890;SDS011;21103;51.358;12.412;2022-07-23T14:07:05;8.60;;;5.28;;
34890;SDS011;21103;51.358;12.412;2022-07-23T14:09:31;8.75;;;7.05;;
34890;SDS011;21103;51.358;12.412;2022-07-23T14:11:58;7.68;;;6.60;;
34890;SDS011;21103;51.358;12.412;2022-07-23T14:14:24;7.55;;;6.70;;
34890;SDS011;21103;51.358;12.412;2022-07-23T14:16:50;7.72;;;6.95;;
34890;SDS011;21103;51.358;12.412;2022-07-23T14:19:15;8.75;;;6.68;;
34890;SDS011;21103;51.358;12.412;2022-07-23T14:21:41;9.13;;;7.07;;
34890;SDS011;21103;51.358;12.412;2022-07-23T14:24:06;7.47;;;6.13;;
34890;SDS011;21103;51.358;12.412;2022-07-23T14:26:32;8.45;;;6.30;;
34890;SDS011;21103;51.358;12.412;2022-07-23T14:28:57;8.88;;;6.80;;
34890;SDS011;21103;51.358;12.412;2022-07-23T14:31:23;8.02;;;6.82;;
34890;SDS011;21103;51.358;12.412;2022-07-23T14:33:48;10.02;;;5.85;;
34890;SDS011;21103;51.358;12.412;2022-07-23T14:36:14;9.10;;;6.97;;
34890;SDS011;21103;51.358;12.412;2022-07-23T14:38:40;7.72;;;6.55;;
34890;SDS011;21103;51.358;12.412;2022-07-23T14:41:05;11.00;;;6.32;;
34890;SDS011;21103;51.358;12.412;2022-07-23T14:43:32;7.80;;;6.65;;
34890;SDS011;21103;51.358;12.412;2022-07-23T14:45:58;8.18;;;6.05;;
34890;SDS011;21103;51.358;12.412;2022-07-23T14:48:24;12.68;;;6.80;;
34890;SDS011;21103;51.358;12.412;2022-07-23T14:50:50;11.93;;;6.70;;
34890;SDS011;21103;51.358;12.412;2022-07-23T14:53:15;6.38;;;5.78;;
34890;SDS011;21103;51.358;12.412;2022-07-23T14:55:41;11.13;;;6.47;;
34890;SDS011;21103;51.358;12.412;2022-07-23T14:58:07;8.18;;;7.25;;
34890;SDS011;21103;51.358;12.412;2022-07-23T15:00:32;7.65;;;6.63;;
34890;SDS011;21103;51.358;12.412;2022-07-23T15:02:58;7.75;;;6.88;;
34890;SDS011;21103;51.358;12.412;2022-07-23T15:05:23;8.35;;;6.97;;
34890;SDS011;21103;51.358;12.412;2022-07-23T15:07:49;8.65;;;7.03;;
34890;SDS011;21103;51.358;12.412;2022-07-23T15:10:14;11.07;;;7.60;;
34890;SDS011;21103;51.358;12.412;2022-07-23T15:12:40;8.93;;;6.57;;